Time;durP1;ratioP1;P1;durP2;ratioP2;P2;SDS_P1;SDS_P2;PMS_P1;PMS_P2;Temp;Humidity;BMP_temperature;BMP_pressure;BME280_temperature;BME280_humidity;BME280_pressure;Samples;Min_cycle;Max_cycle;Signal;HPM_P1;HPM_P2
2022/03/11 00:02:15;;;;;;;32.13;13.33;;;-1.20;71.00;;;;;;5025165;28;20743;-67
2022/03/11 00:05:05;;;;;;;29.70;13.03;;;-1.10;71.10;;;;;;5021761;28;20224;-69
2022/03/11 00:07:55;;;;;;;30.73;12.43;;;-1.30;70.80;;;;;;5022014;28;20233;-70
2022/03/11 00:10:43;;;;;;;29.43;12.23;;;-1.30;71.00;;;;;;5038594;28;20231;-68
2022/03/11 00:13:35;;;;;;;26.93;12.13;;;-1.30;70.80;;;;;;5044283;28;20221;-68
2022/03/11 00:16:29;;;;;;;30.30;12.30;;;-1.20;70.90;;;;;;5036890;28;20225;-69
2022/03/11 00:19:17;;;;;;;31.70;13.10;;;-1.20;70.70;;;;;;5030631;28;20212;-69
2022/03/11 00:22:06;;;;;;;32.27;12.17;;;-1.20;71.10;;;;;;5044729;28;20221;-69
2022/03/11 00:24:55;;;;;;;26.67;12.50;;;-1.20;71.60;;;;;;5024556;28;20232;-68
2022/03/11 00:27:44;;;;;;;30.60;13.13;;;-1.20;71.50;;;;;;5022308;28;20664;-70
2022/03/11 00:30:36;;;;;;;31.97;13.90;;;-1.20;71.70;;;;;;5025160;28;20227;-68
2022/03/11 00:33:30;;;;;;;32.03;13.63;;;-1.30;71.80;;;;;;5038601;28;20229;-69
2022/03/11 00:36:19;;;;;;;29.77;13.50;;;-1.30;71.90;;;;;;5039760;28;20248;-70
2022/03/11 00:39:08;;;;;;;31.93;13.70;;;-1.40;72.30;;;;;;5038233;28;20588;-68
2022/03/11 00:41:56;;;;;;;28.50;12.83;;;-1.30;72.60;;;;;;5040728;28;20884;-69
2022/03/11 00:44:45;;;;;;;32.03;13.17;;;-1.50;72.60;;;;;;5023869;28;20252;-69
2022/03/11 00:47:34;;;;;;;33.90;12.67;;;-1.60;73.00;;;;;;5031341;28;20212;-69
2022/03/11 00:50:24;;;;;;;27.70;12.70;;;-1.50;73.10;;;;;;5020727;28;20298;-69
2022/03/11 00:53:13;;;;;;;27.50;12.30;;;-1.50;72.80;;;;;;5034848;28;20236;-69
2022/03/11 00:56:02;;;;;;;27.47;12.67;;;-1.70;72.90;;;;;;5019928;28;20217;-69
2022/03/11 00:58:50;;;;;;;27.40;11.80;;;-1.70;73.20;;;;;;5038917;28;20232;-69
2022/03/11 01:01:39;;;;;;;23.73;11.10;;;-1.60;73.40;;;;;;5025544;28;20221;-68
2022/03/11 01:04:28;;;;;;;22.97;11.30;;;-1.60;73.20;;;;;;5032217;28;20232;-69
2022/03/11 01:07:18;;;;;;;26.97;11.17;;;-1.70;73.00;;;;;;5024978;28;20223;-69
2022/03/11 01:10:08;;;;;;;29.10;11.83;;;-1.70;74.00;;;;;;5023913;28;20221;-69
2022/03/11 01:13:01;;;;;;;30.03;12.20;;;-1.60;73.60;;;;;;5020173;28;20220;-68
2022/03/11 01:15:49;;;;;;;27.53;12.17;;;-1.60;73.60;;;;;;5022786;28;20235;-70
2022/03/11 01:18:38;;;;;;;26.93;11.13;;;-1.80;73.80;;;;;;5024444;28;20237;-67
2022/03/11 01:21:27;;;;;;;29.20;12.30;;;-1.80;74.10;;;;;;5019731;28;20307;-69
2022/03/11 01:24:17;;;;;;;29.90;12.07;;;-1.80;74.10;;;;;;5038397;28;20303;-70
2022/03/11 01:27:06;;;;;;;31.07;12.00;;;-1.70;74.00;;;;;;5024289;28;20216;-70
2022/03/11 01:29:55;;;;;;;27.70;11.97;;;-1.80;74.10;;;;;;5022676;28;20755;-69
2022/03/11 01:32:47;;;;;;;25.57;11.17;;;-1.70;74.20;;;;;;5038262;28;20692;-70
2022/03/11 01:35:36;;;;;;;31.90;12.47;;;-1.80;74.10;;;;;;5022988;28;20232;-69
2022/03/11 01:38:24;;;;;;;28.50;13.03;;;-1.80;74.40;;;;;;5017902;28;20221;-69
2022/03/11 01:41:14;;;;;;;28.50;11.93;;;-1.80;74.50;;;;;;5023769;28;20213;-70
2022/03/11 01:44:06;;;;;;;26.37;11.90;;;-1.80;74.40;;;;;;5040232;28;20885;-70
2022/03/11 01:46:55;;;;;;;26.10;11.20;;;-1.60;74.20;;;;;;5023509;28;20232;-69
2022/03/11 01:49:44;;;;;;;28.13;12.20;;;-1.70;73.70;;;;;;5019754;28;20224;-69
2022/03/11 01:52:33;;;;;;;29.40;11.43;;;-1.80;74.10;;;;;;5035537;28;20225;-69
2022/03/11 01:55:21;;;;;;;26.17;11.83;;;-1.90;74.30;;;;;;5018233;28;20748;-68
2022/03/11 01:58:12;;;;;;;26.67;10.77;;;-1.80;74.40;;;;;;5019335;28;20230;-69
2022/03/11 02:01:02;;;;;;;26.33;11.40;;;-2.00;74.90;;;;;;5016197;28;20240;-69
2022/03/11 02:03:51;;;;;;;28.53;11.90;;;-2.10;74.50;;;;;;5006367;28;20303;-70
2022/03/11 02:06:45;;;;;;;26.83;11.80;;;-2.00;75.00;;;;;;5003741;28;20236;-70
2022/03/11 02:09:33;;;;;;;29.60;11.73;;;-1.90;75.00;;;;;;5019992;28;20213;-69
2022/03/11 02:12:29;;;;;;;26.00;10.97;;;-2.10;74.90;;;;;;5004342;28;20217;-70
2022/03/11 02:15:19;;;;;;;25.40;10.70;;;-2.00;75.00;;;;;;5006180;28;20217;-70
2022/03/11 02:18:08;;;;;;;27.70;10.63;;;-2.00;74.80;;;;;;5018008;28;20225;-70
2022/03/11 02:20:57;;;;;;;24.67;9.80;;;-2.00;74.60;;;;;;5002915;28;20226;-69
2022/03/11 02:23:52;;;;;;;22.93;9.80;;;-2.00;74.50;;;;;;5022690;28;20229;-71
2022/03/11 02:26:41;;;;;;;20.67;9.53;;;-2.00;74.40;;;;;;5016785;28;20232;-70
2022/03/11 02:29:29;;;;;;;21.27;9.40;;;-1.90;74.30;;;;;;5015612;28;20232;-71
2022/03/11 02:32:18;;;;;;;23.17;10.53;;;-1.90;74.60;;;;;;5018965;28;20222;-70
2022/03/11 02:35:09;;;;;;;19.40;9.33;;;-1.90;74.40;;;;;;5019087;28;20804;-70
2022/03/11 02:37:57;;;;;;;23.67;9.17;;;-1.90;74.40;;;;;;5007352;28;20222;-68
2022/03/11 02:40:47;;;;;;;20.87;9.57;;;-1.90;74.60;;;;;;5017463;28;20259;-69
2022/03/11 02:43:37;;;;;;;23.53;9.10;;;-2.10;74.30;;;;;;5015942;28;20242;-69
2022/03/11 02:46:26;;;;;;;21.83;9.17;;;-2.10;74.60;;;;;;5004559;28;20225;-69
2022/03/11 02:49:15;;;;;;;23.20;9.40;;;-2.10;74.40;;;;;;5002714;28;20221;-68
2022/03/11 02:52:04;;;;;;;19.27;8.90;;;-2.00;74.30;;;;;;5016680;28;20218;-65
2022/03/11 02:54:53;;;;;;;17.73;8.37;;;-2.00;74.40;;;;;;5038371;28;20244;-68
2022/03/11 02:57:43;;;;;;;20.07;8.53;;;-2.10;74.80;;;;;;5023137;28;20221;-68
2022/03/11 03:00:31;;;;;;;18.47;9.03;;;-2.20;75.00;;;;;;5035696;28;20901;-67
2022/03/11 03:03:20;;;;;;;22.20;9.33;;;-2.20;75.40;;;;;;5026452;28;20224;-67
2022/03/11 03:06:09;;;;;;;20.17;9.47;;;-2.10;75.30;;;;;;5045539;28;20231;-67
2022/03/11 03:08:58;;;;;;;19.10;8.50;;;-2.10;75.00;;;;;;5039595;28;20212;-67
2022/03/11 03:11:46;;;;;;;22.20;9.10;;;-2.00;75.20;;;;;;5039592;28;20400;-68
2022/03/11 03:14:36;;;;;;;17.80;8.20;;;-2.00;75.10;;;;;;5038078;28;20240;-68
2022/03/11 03:17:26;;;;;;;20.33;8.93;;;-2.10;75.20;;;;;;5024687;28;20221;-69
2022/03/11 03:20:19;;;;;;;20.73;9.37;;;-2.20;75.00;;;;;;5026058;28;20233;-68
2022/03/11 03:23:08;;;;;;;21.03;9.23;;;-2.20;75.40;;;;;;5030341;28;20217;-69
2022/03/11 03:25:57;;;;;;;18.50;8.90;;;-2.20;75.90;;;;;;5039476;28;20228;-70
2022/03/11 03:28:46;;;;;;;22.13;10.20;;;-2.10;75.30;;;;;;5042697;28;20758;-67
2022/03/11 03:31:44;;;;;;;17.60;8.77;;;-2.00;75.40;;;;;;5035312;28;20228;-69
2022/03/11 03:34:35;;;;;;;24.43;10.30;;;-2.20;75.70;;;;;;5042396;28;20307;-67
2022/03/11 03:37:23;;;;;;;22.17;9.27;;;-2.30;76.30;;;;;;5039100;28;20216;-69
2022/03/11 03:40:12;;;;;;;23.07;9.23;;;-2.30;77.00;;;;;;5025332;28;20223;-69
2022/03/11 03:43:01;;;;;;;19.50;9.37;;;-2.40;77.40;;;;;;5026080;28;20221;-68
2022/03/11 03:45:50;;;;;;;24.20;9.53;;;-2.40;77.20;;;;;;5023240;28;20225;-68
2022/03/11 03:48:39;;;;;;;21.57;10.03;;;-2.50;77.60;;;;;;5024251;28;20267;-68
2022/03/11 03:51:28;;;;;;;20.17;9.47;;;-2.60;78.40;;;;;;5023524;28;20226;-68
2022/03/11 03:54:17;;;;;;;23.90;9.90;;;-2.40;78.40;;;;;;5025063;28;20233;-69
2022/03/11 03:57:07;;;;;;;23.10;9.70;;;-2.50;78.60;;;;;;5036534;28;20224;-70
2022/03/11 03:59:55;;;;;;;21.60;9.77;;;-2.40;79.40;;;;;;5021994;28;20274;-68
2022/03/11 04:02:47;;;;;;;22.70;9.60;;;-2.50;79.50;;;;;;5034030;28;20228;-69
2022/03/11 04:05:38;;;;;;;23.23;9.77;;;-2.50;79.40;;;;;;5023175;28;21353;-69
2022/03/11 04:08:27;;;;;;;23.40;9.93;;;-2.50;79.50;;;;;;5023407;28;20855;-69
2022/03/11 04:11:16;;;;;;;23.53;10.13;;;-2.50;79.80;;;;;;5024831;28;20220;-69
2022/03/11 04:14:04;;;;;;;23.53;10.17;;;-2.70;81.10;;;;;;5029074;28;20734;-68
2022/03/11 04:16:53;;;;;;;21.93;10.20;;;-2.80;81.50;;;;;;5034105;28;20957;-69
2022/03/11 04:19:43;;;;;;;29.17;11.03;;;-2.70;82.20;;;;;;5036881;28;20428;-69
2022/03/11 04:22:33;;;;;;;25.43;10.70;;;-2.70;82.10;;;;;;5037724;28;20579;-68
2022/03/11 04:25:23;;;;;;;23.07;10.43;;;-2.70;83.00;;;;;;5024291;28;20227;-69
2022/03/11 04:28:11;;;;;;;26.27;10.63;;;-2.70;83.00;;;;;;5023782;28;20236;-68
2022/03/11 04:31:00;;;;;;;26.57;11.53;;;-2.60;82.70;;;;;;5022129;28;20232;-70
2022/03/11 04:33:49;;;;;;;24.67;10.67;;;-2.90;84.30;;;;;;5038496;28;20244;-70
2022/03/11 04:36:38;;;;;;;26.23;10.93;;;-2.90;85.80;;;;;;5039302;28;20419;-69
2022/03/11 04:39:29;;;;;;;24.10;11.50;;;-2.90;85.90;;;;;;5023407;28;20228;-68
2022/03/11 04:42:18;;;;;;;26.87;10.90;;;-2.90;85.80;;;;;;5036963;28;20227;-70
2022/03/11 04:45:08;;;;;;;26.70;11.17;;;-3.00;86.40;;;;;;5037679;28;20352;-70
2022/03/11 04:47:57;;;;;;;24.23;10.60;;;-3.10;88.00;;;;;;5019958;28;20225;-70
2022/03/11 04:50:45;;;;;;;28.97;11.60;;;-3.00;87.80;;;;;;5038793;28;20254;-67
2022/03/11 04:53:34;;;;;;;23.67;11.07;;;-3.10;89.70;;;;;;5035627;28;20231;-68
2022/03/11 04:56:24;;;;;;;21.73;10.73;;;-3.30;91.00;;;;;;5035971;28;20227;-67
2022/03/11 04:59:12;;;;;;;21.83;10.70;;;-3.10;90.90;;;;;;5021259;28;20225;-69
2022/03/11 05:02:05;;;;;;;25.90;11.90;;;-3.00;89.60;;;;;;5036097;28;20219;-68
2022/03/11 05:04:57;;;;;;;23.50;10.30;;;-2.90;88.60;;;;;;5019962;28;20309;-69
2022/03/11 05:07:46;;;;;;;21.30;11.20;;;-2.90;88.90;;;;;;5035928;28;20228;-69
2022/03/11 05:10:34;;;;;;;26.00;11.37;;;-2.90;88.40;;;;;;5035394;28;20242;-68
2022/03/11 05:13:24;;;;;;;26.87;11.20;;;-2.90;88.40;;;;;;5023674;28;20227;-69
2022/03/11 05:16:13;;;;;;;26.20;10.83;;;-2.90;88.40;;;;;;5037095;28;20872;-68
2022/03/11 05:19:07;;;;;;;23.97;11.63;;;-3.00;89.50;;;;;;5036823;28;20691;-69
2022/03/11 05:21:56;;;;;;;30.97;11.70;;;-2.90;89.00;;;;;;5020950;28;20718;-68
2022/03/11 05:24:44;;;;;;;27.87;11.17;;;-2.80;86.40;;;;;;5036447;28;20261;-68
2022/03/11 05:27:33;;;;;;;22.50;10.47;;;-2.80;88.40;;;;;;5020746;28;20236;-68
2022/03/11 05:30:23;;;;;;;24.87;11.40;;;-3.10;89.00;;;;;;5032602;28;20221;-69
2022/03/11 05:33:12;;;;;;;26.77;11.73;;;-3.00;90.10;;;;;;5035464;28;20224;-68
2022/03/11 05:36:00;;;;;;;28.63;11.83;;;-2.90;90.00;;;;;;5021882;28;20220;-69
2022/03/11 05:38:49;;;;;;;28.57;11.83;;;-2.90;90.70;;;;;;5019797;28;21000;-69
2022/03/11 05:41:37;;;;;;;29.43;11.73;;;-2.90;90.50;;;;;;5020830;28;20230;-69
2022/03/11 05:44:26;;;;;;;26.83;12.77;;;-3.00;89.90;;;;;;5022777;28;20293;-69
2022/03/11 05:47:18;;;;;;;31.03;13.23;;;-3.00;90.00;;;;;;5033463;28;20224;-68
2022/03/11 05:50:07;;;;;;;32.07;11.73;;;-3.00;90.10;;;;;;5020464;28;20220;-69
2022/03/11 05:52:56;;;;;;;24.73;11.67;;;-2.80;89.20;;;;;;5021117;28;20741;-70
2022/03/11 05:55:45;;;;;;;28.33;11.17;;;-2.70;88.50;;;;;;5035137;28;20227;-70
2022/03/11 05:58:34;;;;;;;23.20;11.23;;;-2.60;87.40;;;;;;5031879;28;20347;-70
2022/03/11 06:01:22;;;;;;;27.20;10.90;;;-2.70;86.30;;;;;;5014353;28;20219;-69
2022/03/11 06:04:12;;;;;;;24.20;10.90;;;-2.60;85.40;;;;;;5022001;28;20225;-68
2022/03/11 06:07:01;;;;;;;27.63;11.80;;;-2.50;84.40;;;;;;5037188;28;20225;-67
2022/03/11 06:09:50;;;;;;;26.23;11.20;;;-2.50;83.40;;;;;;5021933;28;20706;-69
2022/03/11 06:12:38;;;;;;;27.77;10.90;;;-2.40;83.40;;;;;;5021267;28;20228;-68
2022/03/11 06:15:27;;;;;;;22.73;11.03;;;-2.50;81.20;;;;;;5035099;28;20229;-68
2022/03/11 06:18:18;;;;;;;26.73;11.43;;;-2.60;81.50;;;;;;5036473;28;20229;-68
2022/03/11 06:21:08;;;;;;;26.70;10.23;;;-2.50;81.80;;;;;;5022380;28;20216;-69
2022/03/11 06:24:01;;;;;;;22.43;10.63;;;-2.40;81.00;;;;;;5025583;28;20223;-69
2022/03/11 06:26:50;;;;;;;24.47;10.30;;;-2.30;80.60;;;;;;5023832;28;20955;-69
2022/03/11 06:29:38;;;;;;;23.53;9.87;;;-2.20;79.40;;;;;;5025538;28;20831;-67
2022/03/11 06:32:27;;;;;;;28.37;12.07;;;-2.10;78.50;;;;;;5040339;28;20997;-69
2022/03/11 06:35:17;;;;;;;25.37;10.77;;;-2.00;77.10;;;;;;5023182;28;20738;-69
2022/03/11 06:38:08;;;;;;;23.27;9.93;;;-1.90;77.00;;;;;;5026072;28;20228;-69
2022/03/11 06:40:57;;;;;;;26.30;10.47;;;-1.90;75.60;;;;;;5025999;28;20247;-68
2022/03/11 06:43:45;;;;;;;24.10;10.00;;;-1.90;75.30;;;;;;5041396;28;20389;-69
2022/03/11 06:46:39;;;;;;;22.23;9.53;;;-1.80;75.70;;;;;;5027257;28;20836;-69
2022/03/11 06:49:28;;;;;;;23.37;8.63;;;-1.90;74.30;;;;;;5025838;28;20231;-68
2022/03/11 06:52:17;;;;;;;24.50;9.50;;;-1.80;73.50;;;;;;5040115;28;20252;-69
2022/03/11 06:55:08;;;;;;;22.27;9.33;;;-1.70;73.50;;;;;;5042397;28;20251;-69
2022/03/11 06:57:57;;;;;;;22.03;8.80;;;-1.60;73.00;;;;;;5043507;28;20235;-69
2022/03/11 07:00:45;;;;;;;26.20;10.67;;;-1.60;72.00;;;;;;5039481;28;20241;-71
2022/03/11 07:03:34;;;;;;;26.93;10.17;;;-1.60;71.80;;;;;;5042409;28;20213;-70
2022/03/11 07:06:23;;;;;;;21.70;8.57;;;-1.40;72.10;;;;;;5026289;28;20225;-69
2022/03/11 07:09:12;;;;;;;27.83;10.37;;;-1.50;71.00;;;;;;5041340;28;20232;-70
2022/03/11 07:12:03;;;;;;;24.27;10.27;;;-1.40;70.90;;;;;;5038274;28;20227;-70
2022/03/11 07:14:51;;;;;;;24.33;9.13;;;-1.40;71.20;;;;;;5043071;28;20301;-72
2022/03/11 07:17:46;;;;;;;19.57;9.23;;;-1.20;70.60;;;;;;5041866;28;20225;-70
2022/03/11 07:20:34;;;;;;;20.10;8.73;;;-1.10;70.00;;;;;;5026800;28;20228;-69
2022/03/11 07:23:43;;;;;;;21.73;9.03;;;-1.10;69.80;;;;;;5027769;28;20221;-71
2022/03/11 07:26:32;;;;;;;20.43;9.07;;;-1.20;69.30;;;;;;5024860;28;20319;-72
2022/03/11 07:29:26;;;;;;;25.20;8.23;;;-1.10;69.60;;;;;;5024303;28;20313;-69
2022/03/11 07:32:17;;;;;;;17.67;8.43;;;-0.90;69.20;;;;;;5041992;28;20232;-70
2022/03/11 07:35:08;;;;;;;19.70;7.77;;;-0.80;68.60;;;;;;5041337;28;20541;-71
2022/03/11 07:37:57;;;;;;;17.63;6.80;;;-0.80;67.20;;;;;;5024116;28;20226;-70
2022/03/11 07:40:50;;;;;;;16.70;6.60;;;-0.70;65.70;;;;;;5039541;28;20387;-70
2022/03/11 07:43:41;;;;;;;17.40;5.93;;;-0.60;65.00;;;;;;5042708;28;20323;-70
2022/03/11 07:46:52;;;;;;;11.77;5.73;;;-0.60;64.10;;;;;;5026045;28;20224;-69
2022/03/11 07:49:42;;;;;;;14.33;5.50;;;-0.50;63.00;;;;;;5022807;28;20248;-70
2022/03/11 07:52:31;;;;;;;13.60;5.13;;;-0.40;62.50;;;;;;5024394;28;21008;-70
2022/03/11 07:55:23;;;;;;;13.00;6.10;;;-0.50;61.10;;;;;;5042040;28;20348;-69
2022/03/11 07:58:12;;;;;;;12.33;5.83;;;-0.50;61.00;;;;;;5036597;28;20220;-69
2022/03/11 08:01:01;;;;;;;10.20;5.90;;;-0.30;61.60;;;;;;5038377;28;20227;-69
2022/03/11 08:03:51;;;;;;;11.83;6.13;;;-0.10;60.50;;;;;;5020880;28;21162;-71
2022/03/11 08:06:43;;;;;;;16.60;6.13;;;0.10;59.70;;;;;;5022962;28;20790;-71
2022/03/11 08:09:31;;;;;;;13.57;6.83;;;0.50;59.00;;;;;;5036574;28;20227;-69
2022/03/11 08:12:21;;;;;;;16.27;7.03;;;3.80;58.60;;;;;;5020025;28;20229;-72
2022/03/11 08:15:12;;;;;;;13.10;6.63;;;7.20;52.50;;;;;;5040073;28;20221;-71
2022/03/11 08:18:01;;;;;;;15.27;7.00;;;8.70;48.30;;;;;;5022396;28;20701;-70
2022/03/11 08:20:51;;;;;;;18.40;7.73;;;10.00;46.30;;;;;;5021806;28;20888;-72
2022/03/11 08:23:40;;;;;;;13.53;7.33;;;10.90;44.00;;;;;;5022710;28;20223;-71
2022/03/11 08:26:29;;;;;;;20.33;8.27;;;11.90;42.30;;;;;;5024498;28;20243;-71
2022/03/11 08:29:20;;;;;;;15.10;6.60;;;12.60;40.50;;;;;;5037245;28;20738;-72
2022/03/11 08:32:09;;;;;;;11.53;6.73;;;11.40;39.80;;;;;;5039852;28;20221;-72
2022/03/11 08:34:58;;;;;;;15.93;6.77;;;11.90;39.40;;;;;;5023085;28;20218;-71
2022/03/11 08:37:56;;;;;;;10.90;5.77;;;11.70;38.50;;;;;;5023227;28;20227;-72
2022/03/11 08:40:44;;;;;;;9.10;5.07;;;12.60;36.70;;;;;;5036413;28;20717;-70
2022/03/11 08:43:34;;;;;;;8.03;4.93;;;13.50;35.00;;;;;;5039687;28;20234;-69
2022/03/11 08:46:23;;;;;;;8.23;5.30;;;12.90;35.60;;;;;;5019636;28;20580;-73
2022/03/11 08:49:12;;;;;;;9.03;5.20;;;13.10;34.60;;;;;;5023001;28;20656;-71
2022/03/11 08:52:01;;;;;;;12.82;5.72;;;13.50;34.00;;;;;;5038647;28;20228;-71
2022/03/11 08:54:50;;;;;;;12.02;6.10;;;14.20;34.10;;;;;;5022726;28;20707;-71
2022/03/11 08:57:41;;;;;;;9.15;5.70;;;15.50;32.90;;;;;;5019341;28;20295;-71
2022/03/11 09:00:30;;;;;;;9.15;5.18;;;15.50;31.60;;;;;;5037468;28;20308;-72
2022/03/11 09:03:18;;;;;;;10.95;5.38;;;13.80;32.80;;;;;;5028714;28;20695;-70
2022/03/11 09:06:07;;;;;;;9.43;4.85;;;14.70;32.60;;;;;;5039966;28;20699;-71
2022/03/11 09:08:56;;;;;;;10.55;5.18;;;14.20;31.80;;;;;;5025156;28;20977;-69
2022/03/11 09:11:46;;;;;;;11.95;4.93;;;13.00;32.50;;;;;;5025860;28;20224;-70
2022/03/11 09:14:35;;;;;;;9.65;5.50;;;13.90;32.90;;;;;;5041487;28;20219;-70
2022/03/11 09:17:24;;;;;;;11.93;5.53;;;13.40;32.90;;;;;;5035876;28;20285;-72
2022/03/11 09:20:14;;;;;;;10.53;4.67;;;9.40;33.40;;;;;;5023191;28;20233;-72
2022/03/11 09:23:16;;;;;;;12.47;4.80;;;6.70;36.60;;;;;;5022492;28;20228;-70
2022/03/11 09:26:04;;;;;;;7.40;3.97;;;5.40;39.20;;;;;;5040234;28;20232;-72
2022/03/11 09:28:54;;;;;;;8.47;3.97;;;4.80;40.40;;;;;;5023813;28;20229;-70
2022/03/11 09:31:43;;;;;;;9.73;4.40;;;4.20;41.60;;;;;;5039660;28;20243;-70
2022/03/11 09:34:32;;;;;;;6.43;3.83;;;4.00;42.30;;;;;;5038030;28;20232;-72
2022/03/11 09:37:26;;;;;;;7.47;4.50;;;3.30;42.90;;;;;;5036610;28;20747;-74
2022/03/11 09:40:16;;;;;;;8.47;4.10;;;3.30;43.80;;;;;;5021531;28;20257;-71
2022/03/11 09:43:06;;;;;;;7.13;3.50;;;3.30;43.50;;;;;;5021884;28;20222;-71
2022/03/11 09:45:57;;;;;;;7.77;4.10;;;3.40;43.50;;;;;;5032909;28;20369;-73
2022/03/11 09:48:46;;;;;;;6.07;3.60;;;3.50;43.60;;;;;;5021456;28;20218;-72
2022/03/11 09:51:35;;;;;;;8.90;4.20;;;3.50;43.20;;;;;;5032667;28;21051;-71
2022/03/11 09:54:24;;;;;;;7.07;4.10;;;3.30;43.40;;;;;;5036808;28;20232;-70
2022/03/11 09:57:16;;;;;;;7.90;3.90;;;3.30;44.00;;;;;;5034682;28;20232;-71
2022/03/11 10:00:07;;;;;;;7.87;3.53;;;3.20;44.10;;;;;;5020351;28;20229;-70
2022/03/11 10:03:04;;;;;;;8.93;3.97;;;3.00;43.90;;;;;;5022667;28;20274;-69
2022/03/11 10:05:54;;;;;;;9.87;4.20;;;3.20;44.50;;;;;;5036694;28;20228;-70
2022/03/11 10:08:49;;;;;;;10.07;3.77;;;3.00;44.60;;;;;;5021992;28;20225;-71
2022/03/11 10:11:38;;;;;;;8.43;4.03;;;3.20;45.00;;;;;;5034606;28;20216;-71
2022/03/11 10:14:30;;;;;;;7.77;3.93;;;3.40;45.00;;;;;;5035045;28;20864;-70
2022/03/11 10:17:20;;;;;;;9.37;4.30;;;3.30;44.80;;;;;;5036568;28;20224;-71
2022/03/11 10:20:13;;;;;;;9.07;4.30;;;2.60;44.90;;;;;;5024579;28;20355;-70
2022/03/11 10:23:09;;;;;;;8.40;3.43;;;2.70;45.80;;;;;;5023273;28;20261;-70
2022/03/11 10:25:58;;;;;;;7.27;4.20;;;2.50;46.10;;;;;;5038072;28;20827;-70
2022/03/11 10:28:57;;;;;;;9.37;4.17;;;2.60;46.40;;;;;;5023031;28;20233;-70
2022/03/11 10:31:48;;;;;;;10.57;4.20;;;2.60;46.50;;;;;;5036369;28;20225;-70
2022/03/11 10:34:38;;;;;;;12.00;4.37;;;2.60;47.00;;;;;;5023347;28;20225;-70
2022/03/11 10:37:28;;;;;;;8.37;4.23;;;2.90;46.60;;;;;;5037942;28;20588;-70
2022/03/11 10:40:17;;;;;;;7.83;4.17;;;3.00;46.80;;;;;;5022025;28;20313;-69
2022/03/11 10:43:17;;;;;;;11.90;4.83;;;2.90;46.40;;;;;;5022599;28;20346;-69
2022/03/11 10:46:09;;;;;;;7.63;4.30;;;3.20;46.50;;;;;;5037913;28;20626;-70
2022/03/11 10:48:57;;;;;;;9.13;4.67;;;3.40;46.60;;;;;;5020676;28;20224;-69
2022/03/11 10:51:48;;;;;;;12.13;5.90;;;3.30;46.60;;;;;;5040090;28;20232;-70
2022/03/11 10:54:43;;;;;;;9.70;5.97;;;3.10;46.70;;;;;;5024113;28;20225;-70
2022/03/11 10:57:36;;;;;;;6.40;3.70;;;3.00;47.10;;;;;;5020799;28;20414;-71
2022/03/11 11:00:26;;;;;;;8.33;3.90;;;3.20;47.00;;;;;;5033717;28;20685;-70
2022/03/11 11:03:20;;;;;;;9.40;4.47;;;3.10;46.90;;;;;;5034722;28;20228;-71
2022/03/11 11:06:08;;;;;;;7.80;3.57;;;3.20;47.20;;;;;;5032350;28;20224;-69
2022/03/11 11:08:58;;;;;;;9.50;3.90;;;3.40;47.00;;;;;;5036500;28;20228;-70
2022/03/11 11:11:47;;;;;;;8.13;3.30;;;3.30;46.60;;;;;;5035957;28;20217;-71
2022/03/11 11:14:40;;;;;;;6.20;3.00;;;3.50;46.80;;;;;;5022130;28;20218;-72
2022/03/11 11:17:29;;;;;;;6.47;3.30;;;3.60;46.00;;;;;;5034505;28;20248;-71
2022/03/11 11:20:20;;;;;;;6.43;3.00;;;3.70;45.90;;;;;;5021192;28;20695;-70
2022/03/11 11:23:10;;;;;;;5.30;3.07;;;3.70;45.80;;;;;;5034614;28;20277;-71
2022/03/11 11:26:00;;;;;;;6.73;3.27;;;3.40;45.90;;;;;;5031630;28;21185;-70
2022/03/11 11:28:53;;;;;;;7.70;3.00;;;3.50;46.10;;;;;;5038669;28;20230;-70
2022/03/11 11:31:44;;;;;;;6.13;2.77;;;3.30;46.10;;;;;;5023754;28;20731;-70
2022/03/11 11:34:33;;;;;;;6.83;3.00;;;3.50;46.20;;;;;;5035302;28;20914;-70
2022/03/11 11:37:38;;;;;;;8.53;3.30;;;3.60;45.80;;;;;;5037162;28;20217;-70
2022/03/11 11:40:47;;;;;;;5.03;3.07;;;3.60;45.90;;;;;;5038318;28;20599;-70
2022/03/11 11:43:36;;;;;;;9.23;3.07;;;3.70;45.70;;;;;;5023253;28;20238;-70
2022/03/11 11:46:27;;;;;;;6.23;2.73;;;3.70;45.90;;;;;;5038797;28;20225;-69
2022/03/11 11:49:22;;;;;;;7.37;2.80;;;3.60;46.00;;;;;;5022584;28;20217;-71
2022/03/11 11:52:29;;;;;;;8.93;3.13;;;3.50;46.20;;;;;;5021632;28;20696;-70
2022/03/11 11:55:41;;;;;;;5.67;2.60;;;3.70;46.50;;;;;;5024939;28;20232;-71
2022/03/11 11:58:32;;;;;;;6.20;2.73;;;3.70;46.00;;;;;;5040075;28;20216;-70
2022/03/11 12:01:43;;;;;;;6.13;2.73;;;3.80;46.00;;;;;;5028548;28;20225;-70
2022/03/11 12:04:35;;;;;;;8.10;2.60;;;3.90;45.70;;;;;;5039493;28;20224;-69
2022/03/11 12:07:47;;;;;;;7.60;2.97;;;3.90;46.20;;;;;;5040530;28;20229;-69
2022/03/11 12:10:49;;;;;;;4.90;2.53;;;4.00;46.10;;;;;;5018871;28;20299;-69
2022/03/11 12:13:43;;;;;;;6.00;3.07;;;4.00;45.60;;;;;;5038928;28;20228;-71
2022/03/11 12:17:04;;;;;;;6.87;3.03;;;4.00;45.80;;;;;;5033183;28;20321;-67
2022/03/11 12:19:53;;;;;;;7.43;3.03;;;4.00;46.30;;;;;;5041511;28;20221;-66
2022/03/11 12:22:52;;;;;;;8.53;3.10;;;4.10;46.20;;;;;;5023993;28;20223;-68
2022/03/11 12:25:44;;;;;;;9.33;3.60;;;4.00;46.30;;;;;;5040148;28;20234;-70
2022/03/11 12:28:35;;;;;;;6.47;3.27;;;3.90;46.30;;;;;;5024941;28;20226;-69
2022/03/11 12:31:27;;;;;;;6.83;3.03;;;3.70;46.40;;;;;;5022789;28;20746;-69
2022/03/11 12:34:19;;;;;;;7.17;3.70;;;3.90;46.80;;;;;;5038205;28;20332;-69
2022/03/11 12:37:15;;;;;;;6.60;3.53;;;4.00;47.00;;;;;;5040321;28;20226;-70
2022/03/11 12:40:09;;;;;;;5.57;3.20;;;3.90;47.00;;;;;;5023084;28;20228;-68
2022/03/11 12:43:01;;;;;;;6.73;3.57;;;4.00;47.60;;;;;;5039444;28;21024;-68
2022/03/11 12:45:50;;;;;;;6.53;3.17;;;4.10;47.50;;;;;;5039815;28;20230;-68
2022/03/11 12:48:40;;;;;;;9.23;3.90;;;3.90;47.20;;;;;;5024879;28;20229;-69
2022/03/11 12:51:30;;;;;;;10.47;3.60;;;3.80;47.40;;;;;;5022168;28;20238;-69
2022/03/11 12:54:27;;;;;;;5.40;2.90;;;3.90;47.50;;;;;;5036861;28;20224;-70
2022/03/11 12:57:16;;;;;;;6.40;3.37;;;4.00;47.30;;;;;;5020690;28;20270;-68
2022/03/11 13:00:05;;;;;;;5.77;2.80;;;3.90;47.30;;;;;;5041024;28;20247;-70
2022/03/11 13:02:54;;;;;;;5.87;2.80;;;4.00;47.00;;;;;;5036529;28;20335;-70
2022/03/11 13:05:46;;;;;;;5.30;2.70;;;3.90;46.50;;;;;;5041305;28;20814;-68
2022/03/11 13:08:37;;;;;;;8.27;3.03;;;3.90;46.20;;;;;;5040180;28;20244;-69
2022/03/11 13:11:26;;;;;;;5.57;2.90;;;4.00;46.30;;;;;;5024308;28;20227;-70
2022/03/11 13:14:19;;;;;;;5.10;2.90;;;4.00;46.10;;;;;;5041909;28;20563;-69
2022/03/11 13:17:08;;;;;;;5.97;3.00;;;4.00;46.30;;;;;;5037313;28;20561;-69
2022/03/11 13:19:57;;;;;;;5.80;2.90;;;4.10;46.50;;;;;;5024547;28;20235;-69
2022/03/11 13:22:50;;;;;;;6.07;2.93;;;3.90;46.30;;;;;;5016494;28;20691;-69
2022/03/11 13:25:42;;;;;;;5.90;3.10;;;3.90;46.70;;;;;;5033852;28;20689;-70
2022/03/11 13:28:32;;;;;;;7.17;3.27;;;4.00;47.30;;;;;;5035721;28;20699;-70
2022/03/11 13:31:27;;;;;;;8.43;3.60;;;4.10;47.30;;;;;;5033512;28;20225;-67
2022/03/11 13:34:16;;;;;;;5.30;2.77;;;4.10;47.10;;;;;;5032121;28;20218;-68
2022/03/11 13:37:11;;;;;;;5.60;2.80;;;4.00;46.60;;;;;;5036992;28;20237;-68
2022/03/11 13:40:10;;;;;;;5.40;2.70;;;4.00;46.30;;;;;;5033194;28;20322;-68
2022/03/11 13:43:02;;;;;;;7.77;3.20;;;4.00;46.50;;;;;;5034690;28;20268;-69
2022/03/11 13:45:53;;;;;;;5.80;2.57;;;4.00;46.70;;;;;;5036548;28;20244;-70
2022/03/11 13:48:41;;;;;;;5.67;2.87;;;4.10;46.80;;;;;;5038479;28;20237;-70
2022/03/11 13:51:41;;;;;;;5.57;2.70;;;4.10;46.90;;;;;;5026220;28;20222;-68
2022/03/11 13:54:34;;;;;;;7.90;3.40;;;4.10;46.60;;;;;;5016315;22;20231;-79
2022/03/11 13:57:25;;;;;;;7.37;3.40;;;4.10;46.50;;;;;;5002000;28;20227;-82
2022/03/11 14:00:22;;;;;;;7.60;3.37;;;4.00;46.80;;;;;;4989412;28;20215;-79
2022/03/11 14:03:16;;;;;;;7.23;3.27;;;4.00;47.10;;;;;;5001585;28;20234;-80
2022/03/11 14:06:07;;;;;;;7.10;3.03;;;4.10;47.50;;;;;;4999894;28;20927;-81
2022/03/11 14:09:24;;;;;;;4.83;2.80;;;4.20;47.60;;;;;;4996541;28;20223;-85
2022/03/11 14:12:25;;;;;;;6.80;2.57;;;4.10;47.00;;;;;;4991834;28;20240;-81
2022/03/11 14:15:16;;;;;;;6.13;2.77;;;4.10;47.00;;;;;;4994505;28;20314;-84
2022/03/11 14:18:10;;;;;;;4.93;2.80;;;4.20;46.90;;;;;;4994892;28;20261;-88
2022/03/11 14:21:20;;;;;;;5.37;2.73;;;4.10;46.90;;;;;;4987899;28;20266;-90
2022/03/11 14:24:11;;;;;;;5.70;2.40;;;4.10;46.80;;;;;;4983209;28;20223;-89
2022/03/11 14:27:00;;;;;;;6.90;2.63;;;4.00;46.60;;;;;;4986321;28;20581;-89
2022/03/11 14:29:50;;;;;;;6.13;2.83;;;3.90;46.80;;;;;;5000715;28;20222;-86
2022/03/11 14:32:40;;;;;;;5.60;2.87;;;3.90;47.40;;;;;;5009506;28;20266;-87
2022/03/11 14:35:30;;;;;;;5.83;3.10;;;4.00;47.80;;;;;;5013949;28;20221;-83
2022/03/11 14:38:19;;;;;;;6.53;2.90;;;4.10;47.90;;;;;;4981978;28;20229;-84
2022/03/11 14:41:08;;;;;;;5.97;2.80;;;4.00;47.80;;;;;;4990860;28;20231;-84
2022/03/11 14:43:59;;;;;;;9.53;3.07;;;3.90;48.00;;;;;;5006055;28;20218;-85